Moscow, ID

2:55 AM PDT on October 02, 2014 (GMT -0700)
Westview | Change Station
CLOSE
Current Station
Personal Weather Station
Location: Moscow, ID
Elevation: 2650 ft
Nearby Weather Stations

Elev 2650 ft 46.73 °N, 116.97 °W | Updated 9 minutes ago

Clear
Clear
42.2 °F
Feels Like 42 °F
N
0.0
Wind Variable Wind from SW
Gusts 2.0 mph

Today
High -- | Low -- °F
--% Chance of Precip.
Yesterday
High -- | Low -- °F
Precip. -- in
6:48 AM 6:25 PM
First Quarter, 57% visible
Pressure 30.15 in
Visibility 10.0 miles
Clouds Clear
Windchill 42 °F
Dew Point 37 °F
Humidity 81%
Rainfall 0.00 in
Snow Depth 1 in , 0 in , 1 in
UV 0 out of 12
Pollen 5.80 out of 12
PM2.5 Good
Flu Activity Not available.
METAR KPUW 020853Z AUTO 00000KT 10SM CLR 06/02 A3013 RMK AO2 SLP208 T00610022 53010

More Conditions Fewer Conditions

Pressure 30.15 in
Visibility 10.0 miles
Clouds Clear
Windchill 42 °F
Dew Point 37 °F
Humidity 81%
Rainfall 0.00 in
Snow Depth 1 in , 0 in , 1 in
UV 0 out of 12
Pollen 5.80 out of 12
PM2.5 Good
Flu Activity Not available.
METAR KPUW 020853Z AUTO 00000KT 10SM CLR 06/02 A3013 RMK AO2 SLP208 T00610022 53010

More Conditions Fewer Conditions

10-Day Weather Forecast

Almanac

Astronomy

Oct. 02, 2014 Rise Set
Actual Time 6:48 AM PDT 6:25 PM PDT
Civil Twilight 6:17 AM PDT 6:55 PM PDT
Nautical Twilight 5:42 AM PDT 7:30 PM PDT
Astronomical Twilight 5:06 AM PDT 8:06 PM PDT
Moon 2:54 PM PDT No Moon Set
Length of Visible Light 12h 37m
Length of Day
11h 37m
Tomorrow will be 3m 18s shorter.
First Quarter, 57% of the Moon is Illuminated
Today
First Quarter
Oct 8
Full
Oct 15
Last Quarter
Oct 23
New
Oct 30
First Quarter

Today's Extremes

State Highs State Lows

Community

WunderPhotos

Upload Photos

1,758,206 photos uploaded!

WunderBlogs® & News

By Dr. Jeff Masters
Director of Meteorology, Weather Underground
By Kari Strenfel
Meteorologist, Weather Underground
By Christopher C. Burt
Weather Historian, Weather Underground
October 2, 2014
October 2, 2014
October 2, 2014

Nearby

Air Quality

  Air Quality AQ Index Pollutant
Yesterday Good
PM2.5
Current Good
PM2.5
Thursday Good
PM2.5
Friday Good
PM2.5

Snow Depth

Station Depth Elevation
White Elephant 1 in 7710 ft
Savage Pass 1 in 6170 ft
Myrtle Creek 0 in 3520 ft
Hyndman 1 in 7440 ft
Secesh Summit 1 in 6520 ft

Earthquake Activity

City Distance Mag. Time & Date
No recent earthquake activity has been reported nearby.
Minimum magnitude displayed is 2.5.

Coastal Water Temperatures

Place Temperature
No Stations Reporting

Nearby Weather Stations